createdAt,value
2023-04-11T00:01:05.262Z,1.97
2023-04-11T00:03:33.632Z,1.80
2023-04-11T00:06:02.210Z,1.40
2023-04-11T00:08:31.818Z,2.77
2023-04-11T00:11:00.019Z,1.40
2023-04-11T00:13:28.208Z,1.70
2023-04-11T00:15:56.561Z,2.07
2023-04-11T00:18:25.775Z,1.53
2023-04-11T00:20:53.991Z,1.63
2023-04-11T00:23:22.274Z,1.83
2023-04-11T00:25:51.974Z,1.60
2023-04-11T00:28:20.089Z,2.27
2023-04-11T00:30:48.260Z,1.57
2023-04-11T00:33:16.658Z,2.03
2023-04-11T00:35:45.716Z,2.03
2023-04-11T00:38:13.988Z,1.67
2023-04-11T00:40:42.260Z,1.93
2023-04-11T00:43:11.940Z,1.63
2023-04-11T00:45:40.441Z,1.60
2023-04-11T00:48:09.011Z,2.00
2023-04-11T00:50:43.292Z,1.30
2023-04-11T00:53:14.203Z,2.07
2023-04-11T00:55:42.557Z,1.73
2023-04-11T00:58:12.160Z,2.00
2023-04-11T01:00:41.470Z,2.30
2023-04-11T01:03:10.282Z,1.60
2023-04-11T01:05:39.201Z,1.20
2023-04-11T01:08:09.206Z,2.20
2023-04-11T01:10:38.081Z,2.00
2023-04-11T01:13:06.539Z,1.83
2023-04-11T01:15:36.353Z,1.70
2023-04-11T01:18:05.896Z,2.17
2023-04-11T01:20:34.552Z,1.97
2023-04-11T01:23:03.913Z,1.80
2023-04-11T01:25:33.785Z,1.37
2023-04-11T01:28:03.157Z,1.30
2023-04-11T01:30:31.389Z,1.23
2023-04-11T01:33:00.233Z,1.27
2023-04-11T01:35:28.482Z,1.87
2023-04-11T01:37:56.784Z,2.53
2023-04-11T01:40:25.561Z,1.60
2023-04-11T01:42:56.114Z,1.63
2023-04-11T01:45:26.323Z,1.80
2023-04-11T01:47:54.999Z,2.27
2023-04-11T01:50:23.631Z,1.03
2023-04-11T01:52:52.653Z,0.93
2023-04-11T01:55:21.008Z,1.43
2023-04-11T01:57:49.256Z,1.77
2023-04-11T02:00:20.241Z,1.50
2023-04-11T02:02:48.542Z,1.90
2023-04-11T02:05:16.953Z,1.97
2023-04-11T02:07:45.246Z,0.67
2023-04-11T02:10:13.494Z,1.33
2023-04-11T02:12:41.722Z,1.97
2023-04-11T02:15:10.813Z,1.47
2023-04-11T02:17:45.322Z,1.57
2023-04-11T02:20:14.603Z,1.23
2023-04-11T02:22:43.143Z,1.93
2023-04-11T02:25:11.572Z,1.33
2023-04-11T02:27:39.779Z,1.53
2023-04-11T02:30:09.450Z,1.80
2023-04-11T02:32:39.533Z,1.27
2023-04-11T02:35:08.844Z,1.30
2023-04-11T02:37:37.499Z,1.87
2023-04-11T02:40:08.070Z,0.80
2023-04-11T02:42:36.435Z,1.87
2023-04-11T02:45:05.049Z,1.43
2023-04-11T02:47:33.343Z,1.87
2023-04-11T02:50:03.025Z,1.30
2023-04-11T02:52:33.462Z,2.03
2023-04-11T02:55:01.767Z,1.10
2023-04-11T02:57:30.316Z,1.33
2023-04-11T02:59:58.535Z,1.63
2023-04-11T03:02:27.017Z,1.73
2023-04-11T03:04:55.464Z,1.03
2023-04-11T03:07:27.054Z,1.80
2023-04-11T03:09:55.410Z,1.47
2023-04-11T03:12:23.570Z,2.00
2023-04-11T03:14:51.721Z,1.83
2023-04-11T03:17:20.103Z,1.93
2023-04-11T03:19:48.456Z,1.50
2023-04-11T03:22:17.334Z,1.20
2023-04-11T03:24:46.981Z,1.27
2023-04-11T03:27:15.506Z,2.00
2023-04-11T03:29:43.699Z,2.00
2023-04-11T03:32:11.919Z,1.17
2023-04-11T03:34:40.269Z,2.23
2023-04-11T03:37:08.486Z,1.17
2023-04-11T03:39:36.785Z,2.23
2023-04-11T03:42:06.552Z,1.43
2023-04-11T03:44:34.755Z,1.57
2023-04-11T03:47:03.100Z,1.63
2023-04-11T03:49:31.377Z,1.23
2023-04-11T03:51:59.579Z,1.33
2023-04-11T03:54:27.969Z,1.07
2023-04-11T03:56:57.237Z,1.27
2023-04-11T03:59:26.796Z,1.17
2023-04-11T04:01:55.192Z,1.87
2023-04-11T04:04:23.637Z,1.23
2023-04-11T04:06:56.552Z,1.57
2023-04-11T04:09:24.891Z,2.00
2023-04-11T04:11:53.061Z,1.50
2023-04-11T04:14:21.186Z,1.37
2023-04-11T04:16:50.809Z,1.03
2023-04-11T04:19:19.054Z,1.20
2023-04-11T04:21:47.451Z,0.83
2023-04-11T04:24:15.724Z,1.47
2023-04-11T04:26:43.944Z,1.20
2023-04-11T04:29:12.613Z,2.57
2023-04-11T04:31:41.586Z,1.60
2023-04-11T04:34:11.960Z,1.30
2023-04-11T04:36:47.642Z,1.30
2023-04-11T04:39:17.917Z,1.77
2023-04-11T04:41:48.592Z,1.40
2023-04-11T04:44:17.428Z,1.63
2023-04-11T04:46:46.013Z,1.60
2023-04-11T04:49:15.618Z,1.30
2023-04-11T04:51:43.906Z,1.27
2023-04-11T04:54:12.128Z,1.43
2023-04-11T04:56:41.433Z,0.90
2023-04-11T04:59:14.516Z,1.30
2023-04-11T05:01:43.124Z,1.07
2023-04-11T05:04:11.704Z,1.00
2023-04-11T05:06:41.371Z,1.07
2023-04-11T05:09:09.619Z,1.20
2023-04-11T05:11:37.893Z,1.30
2023-04-11T05:14:06.682Z,1.33
2023-04-11T05:16:35.043Z,1.00
2023-04-11T05:19:03.572Z,1.93
2023-04-11T05:21:31.965Z,0.83
2023-04-11T05:24:01.690Z,1.40
2023-04-11T05:26:29.935Z,1.27
2023-04-11T05:28:58.266Z,1.20
2023-04-11T05:31:26.816Z,0.90
2023-04-11T05:33:55.513Z,1.17
2023-04-11T05:36:24.470Z,1.00
2023-04-11T05:38:52.855Z,1.63
2023-04-11T05:41:22.924Z,2.00
2023-04-11T05:43:51.317Z,1.30
2023-04-11T05:46:19.610Z,1.33
2023-04-11T05:48:47.868Z,1.73
2023-04-11T05:51:16.091Z,1.37
2023-04-11T05:53:44.938Z,1.03
2023-04-11T05:56:13.223Z,1.27
2023-04-11T05:58:44.524Z,1.00
2023-04-11T06:01:18.576Z,0.97
2023-04-11T06:03:47.313Z,1.37
2023-04-11T06:06:16.115Z,1.50
2023-04-11T06:08:44.448Z,1.67
2023-04-11T06:11:12.648Z,1.13
2023-04-11T06:13:42.851Z,1.47
2023-04-11T06:16:11.716Z,1.10
2023-04-11T06:18:40.173Z,1.70
2023-04-11T06:21:08.554Z,1.33
2023-04-11T06:23:36.756Z,0.80
2023-04-11T06:26:06.523Z,1.23
2023-04-11T06:28:34.882Z,1.17
2023-04-11T06:31:04.636Z,1.63
2023-04-11T06:33:33.078Z,1.47
2023-04-11T06:36:01.400Z,1.43
2023-04-11T06:38:30.000Z,1.33
2023-04-11T06:40:58.306Z,1.00
2023-04-11T06:43:26.558Z,1.17
2023-04-11T06:45:54.816Z,1.10
2023-04-11T06:48:24.436Z,1.63
2023-04-11T06:50:52.643Z,0.93
2023-04-11T06:53:21.219Z,1.60
2023-04-11T06:55:50.576Z,1.00
2023-04-11T06:58:18.871Z,1.60
2023-04-11T07:00:47.103Z,1.43
2023-04-11T07:03:15.465Z,1.63
2023-04-11T07:05:45.241Z,1.17
2023-04-11T07:08:13.537Z,0.73
2023-04-11T07:10:41.900Z,0.83
2023-04-11T07:13:10.156Z,0.77
2023-04-11T07:15:38.406Z,0.97
2023-04-11T07:18:06.840Z,1.00
2023-04-11T07:20:36.089Z,0.70
2023-04-11T07:23:05.752Z,0.57
2023-04-11T07:25:34.268Z,1.20
2023-04-11T07:28:07.466Z,1.20
2023-04-11T07:30:36.578Z,1.00
2023-04-11T07:33:05.253Z,0.93
2023-04-11T07:35:34.725Z,0.80
2023-04-11T07:38:03.462Z,1.00
2023-04-11T07:40:33.281Z,1.03
2023-04-11T07:43:02.276Z,1.30
2023-04-11T07:45:30.791Z,0.80
2023-04-11T07:47:59.094Z,0.70
2023-04-11T07:50:27.340Z,0.83
2023-04-11T07:52:55.814Z,1.43
2023-04-11T07:55:24.062Z,1.07
2023-04-11T07:57:53.854Z,0.87
2023-04-11T08:00:23.965Z,0.70
2023-04-11T08:02:52.942Z,0.90
2023-04-11T08:05:21.536Z,1.30
2023-04-11T08:07:49.799Z,0.80
2023-04-11T08:10:18.214Z,0.97
2023-04-11T08:12:46.419Z,1.40
2023-04-11T08:15:16.291Z,0.80
2023-04-11T08:17:49.737Z,0.87
2023-04-11T08:20:19.787Z,1.83
2023-04-11T08:22:47.977Z,1.33
2023-04-11T08:25:17.021Z,1.00
2023-04-11T08:27:45.411Z,1.50
2023-04-11T08:30:16.925Z,0.80
2023-04-11T08:32:45.353Z,1.17
2023-04-11T08:35:13.588Z,0.83
2023-04-11T08:37:41.859Z,0.77
2023-04-11T08:40:12.036Z,1.23
2023-04-11T08:42:40.289Z,1.27
2023-04-11T08:45:10.238Z,1.30
2023-04-11T08:47:39.892Z,0.90
2023-04-11T08:50:10.049Z,1.00
2023-04-11T08:52:42.498Z,0.80
2023-04-11T08:55:13.531Z,0.70
2023-04-11T08:57:42.369Z,0.83
2023-04-11T09:00:14.436Z,1.17
2023-04-11T09:02:59.435Z,1.07
2023-04-11T09:05:32.137Z,1.40
2023-04-11T09:08:02.328Z,0.90
2023-04-11T09:10:30.843Z,1.80
2023-04-11T09:12:59.549Z,0.90
2023-04-11T09:15:30.302Z,0.97
2023-04-11T09:18:01.079Z,0.80
2023-04-11T09:20:31.156Z,0.70
2023-04-11T09:23:00.217Z,0.60
2023-04-11T09:25:28.943Z,1.40
2023-04-11T09:28:10.690Z,0.90
2023-04-11T09:30:38.990Z,1.37
2023-04-11T09:33:23.325Z,1.63
2023-04-11T09:35:54.284Z,2.23
2023-04-11T09:38:31.799Z,1.00
2023-04-11T09:41:01.631Z,1.80
2023-04-11T09:43:50.024Z,1.67
2023-04-11T09:46:18.749Z,1.93
2023-04-11T09:48:49.343Z,1.17
2023-04-11T09:51:34.291Z,2.27
2023-04-11T09:54:05.542Z,0.90
2023-04-11T09:56:35.380Z,1.03
2023-04-11T09:59:05.258Z,1.37
2023-04-11T10:01:33.826Z,0.77
2023-04-11T10:04:04.499Z,0.70
2023-04-11T10:06:42.427Z,0.80
2023-04-11T10:09:14.018Z,0.93
2023-04-11T10:11:44.322Z,1.43
2023-04-11T10:14:44.103Z,1.10
2023-04-11T10:17:17.053Z,1.70
2023-04-11T10:19:51.567Z,4.07
2023-04-11T10:23:01.136Z,6.10
2023-04-11T10:25:30.093Z,4.63
2023-04-11T10:28:01.991Z,2.90
2023-04-11T10:31:03.241Z,2.20
2023-04-11T10:33:32.953Z,5.63
2023-04-11T10:36:06.406Z,7.30
2023-04-11T10:38:51.422Z,5.87
2023-04-11T10:41:31.817Z,1.70
2023-04-11T10:44:18.131Z,1.23
2023-04-11T10:46:54.003Z,1.63
2023-04-11T10:49:40.370Z,1.57
2023-04-11T10:52:22.210Z,1.50
2023-04-11T10:54:52.508Z,1.67
2023-04-11T10:57:22.814Z,0.80
2023-04-11T11:00:16.697Z,1.27
2023-04-11T11:02:45.200Z,0.77
2023-04-11T11:05:21.869Z,1.57
2023-04-11T11:07:54.447Z,0.50
2023-04-11T11:10:40.381Z,0.50
2023-04-11T11:13:09.181Z,1.20
2023-04-11T11:15:38.575Z,3.07
2023-04-11T11:18:10.788Z,2.60
2023-04-11T11:20:39.307Z,1.87
2023-04-11T11:23:11.510Z,0.50
2023-04-11T11:25:39.772Z,0.30
2023-04-11T11:28:10.398Z,0.40
2023-04-11T11:30:39.755Z,0.50
2023-04-11T11:33:27.511Z,1.33
2023-04-11T11:35:59.430Z,1.53
2023-04-11T11:38:30.904Z,0.80
2023-04-11T11:41:00.439Z,0.43
2023-04-11T11:43:29.255Z,0.90
2023-04-11T11:46:18.581Z,1.07
2023-04-11T11:49:01.413Z,2.20
2023-04-11T11:51:41.950Z,1.77
2023-04-11T11:54:12.864Z,1.83
2023-04-11T11:56:42.697Z,1.07
2023-04-11T11:59:10.992Z,1.13
2023-04-11T12:01:43.295Z,0.73
2023-04-11T12:04:13.073Z,0.80
2023-04-11T12:06:41.458Z,0.53
2023-04-11T12:09:12.269Z,0.83
2023-04-11T12:11:41.909Z,0.73
2023-04-11T12:14:12.363Z,0.50
2023-04-11T12:16:40.918Z,0.60
2023-04-11T12:19:10.426Z,0.30
2023-04-11T12:21:38.815Z,0.60
2023-04-11T12:24:08.656Z,0.40
2023-04-11T12:26:42.738Z,0.40
2023-04-11T12:29:17.323Z,0.43
2023-04-11T12:31:46.037Z,0.30
2023-04-11T12:34:14.552Z,0.20
2023-04-11T12:36:42.851Z,0.20
2023-04-11T12:39:11.191Z,0.20
2023-04-11T12:41:40.850Z,0.20
2023-04-11T12:44:09.094Z,0.40
2023-04-11T12:46:37.445Z,0.20
2023-04-11T12:49:05.756Z,0.23
2023-04-11T12:51:34.030Z,0.30
2023-04-11T12:54:02.498Z,0.23
2023-04-11T12:56:30.952Z,0.20
2023-04-11T12:59:00.640Z,0.40
2023-04-11T13:01:28.891Z,0.20
2023-04-11T13:03:57.429Z,0.20
2023-04-11T13:06:26.041Z,0.23
2023-04-11T13:08:54.540Z,0.20
2023-04-11T13:11:22.978Z,0.40
2023-04-11T13:13:52.421Z,0.40
2023-04-11T13:16:22.238Z,0.57
2023-04-11T13:18:51.311Z,0.40
2023-04-11T13:21:20.758Z,0.40
2023-04-11T13:23:49.026Z,0.27
2023-04-11T13:26:17.423Z,0.20
2023-04-11T13:28:52.034Z,0.80
2023-04-11T13:31:26.796Z,0.40
2023-04-11T13:33:55.419Z,0.37
2023-04-11T13:36:23.848Z,0.33
2023-04-11T13:38:54.753Z,0.33
2023-04-11T13:41:23.838Z,0.30
2023-04-11T13:43:53.224Z,0.47
2023-04-11T13:46:23.249Z,0.30
2023-04-11T13:48:51.839Z,0.23
2023-04-11T13:51:20.201Z,0.50
2023-04-11T13:53:48.386Z,0.40
2023-04-11T13:56:16.861Z,0.40
2023-04-11T13:58:45.340Z,0.30
2023-04-11T14:01:13.591Z,0.60
2023-04-11T14:03:44.687Z,0.30
2023-04-11T14:06:12.949Z,0.30
2023-04-11T14:08:41.210Z,0.20
2023-04-11T14:11:09.483Z,0.30
2023-04-11T14:13:38.221Z,0.47
2023-04-11T14:16:09.199Z,0.77
2023-04-11T14:18:37.975Z,0.37
2023-04-11T14:21:08.743Z,0.30
2023-04-11T14:23:37.191Z,0.20
2023-04-11T14:26:06.371Z,0.30
2023-04-11T14:28:34.764Z,0.30
2023-04-11T14:31:03.302Z,0.27
2023-04-11T14:33:32.436Z,0.27
2023-04-11T14:36:01.104Z,0.30
2023-04-11T14:38:31.814Z,0.30
2023-04-11T14:41:00.089Z,0.50
2023-04-11T14:43:28.222Z,0.20
2023-04-11T14:45:57.553Z,0.40
2023-04-11T14:48:27.314Z,0.30
2023-04-11T14:50:55.797Z,0.30
2023-04-11T14:53:24.042Z,0.30
2023-04-11T14:55:53.684Z,0.60
2023-04-11T14:58:21.856Z,0.40
2023-04-11T15:00:50.048Z,0.30
2023-04-11T15:03:21.913Z,0.20
2023-04-11T15:05:50.554Z,0.60
2023-04-11T15:08:18.750Z,0.20
2023-04-11T15:10:49.443Z,0.33
2023-04-11T15:13:19.108Z,0.30
2023-04-11T15:15:47.295Z,0.20
2023-04-11T15:18:24.790Z,0.27
2023-04-11T15:20:53.480Z,0.40
2023-04-11T15:23:22.483Z,0.20
2023-04-11T15:25:55.270Z,0.20
2023-04-11T15:28:25.915Z,0.20
2023-04-11T15:30:55.666Z,0.30
2023-04-11T15:33:24.649Z,0.37
2023-04-11T15:35:54.640Z,0.20
2023-04-11T15:38:23.044Z,0.30
2023-04-11T15:40:51.899Z,0.57
2023-04-11T15:43:20.256Z,0.33
2023-04-11T15:45:52.264Z,0.20
2023-04-11T15:48:20.645Z,0.20
2023-04-11T15:50:48.933Z,0.20
2023-04-11T15:53:17.180Z,0.70
2023-04-11T15:55:47.069Z,0.30
2023-04-11T15:58:15.281Z,0.40
2023-04-11T16:00:46.904Z,0.20
2023-04-11T16:03:17.984Z,0.30
2023-04-11T16:05:47.186Z,0.20
2023-04-11T16:08:15.819Z,0.30
2023-04-11T16:10:43.991Z,0.53
2023-04-11T16:13:12.328Z,0.20
2023-04-11T16:15:40.534Z,0.20
2023-04-11T16:18:08.787Z,0.30
2023-04-11T16:20:38.472Z,0.33
2023-04-11T16:23:06.919Z,0.20
2023-04-11T16:25:35.709Z,0.30
2023-04-11T16:28:03.883Z,0.60
2023-04-11T16:30:32.096Z,0.27
2023-04-11T16:33:00.397Z,0.37
2023-04-11T16:35:29.548Z,0.40
2023-04-11T16:37:59.183Z,0.70
2023-04-11T16:40:27.924Z,0.23
2023-04-11T16:42:56.460Z,0.20
2023-04-11T16:45:25.468Z,0.30
2023-04-11T16:47:53.748Z,0.20
2023-04-11T16:50:22.315Z,0.30
2023-04-11T16:52:50.713Z,0.20
2023-04-11T16:55:20.515Z,0.53
2023-04-11T16:57:48.841Z,0.33
2023-04-11T17:00:20.363Z,0.40
2023-04-11T17:02:48.770Z,0.53
2023-04-11T17:05:18.825Z,0.83
2023-04-11T17:07:47.213Z,1.80
2023-04-11T17:10:15.639Z,1.27
2023-04-11T17:12:45.262Z,1.20
2023-04-11T17:15:13.679Z,0.50
2023-04-11T17:17:41.962Z,0.20
2023-04-11T17:20:11.979Z,0.83
2023-04-11T17:22:43.093Z,0.60
2023-04-11T17:25:12.064Z,0.37
2023-04-11T17:27:41.721Z,0.40
2023-04-11T17:30:12.394Z,1.20
2023-04-11T17:32:40.820Z,0.70
2023-04-11T17:35:10.076Z,0.30
2023-04-11T17:37:39.580Z,0.23
2023-04-11T17:40:14.302Z,0.23
2023-04-11T17:42:42.615Z,0.73
2023-04-11T17:47:44.506Z,0.33
2023-04-11T17:50:14.673Z,0.30
2023-04-11T17:52:44.954Z,0.33
2023-04-11T17:55:15.875Z,0.40
2023-04-11T17:57:44.668Z,0.23
2023-04-11T18:00:19.732Z,0.50
2023-04-11T18:02:52.381Z,0.40
2023-04-11T18:05:25.269Z,0.20
2023-04-11T18:07:56.400Z,0.27
2023-04-11T18:10:27.075Z,0.20
2023-04-11T18:12:58.268Z,0.20
2023-04-11T18:15:28.296Z,0.40
2023-04-11T18:17:56.517Z,0.30
2023-04-11T18:20:24.846Z,0.37
2023-04-11T18:22:55.986Z,0.73
2023-04-11T18:25:24.606Z,0.30
2023-04-11T18:27:52.918Z,0.30
2023-04-11T18:30:21.127Z,0.30
2023-04-11T18:32:52.114Z,0.40
2023-04-11T18:35:21.157Z,0.20
2023-04-11T18:37:49.356Z,0.50
2023-04-11T18:40:18.261Z,0.30
2023-04-11T18:42:50.595Z,1.27
2023-04-11T18:45:20.599Z,0.80
2023-04-11T18:47:51.427Z,0.30
2023-04-11T18:50:22.506Z,0.40
2023-04-11T18:52:55.617Z,0.37
2023-04-11T18:55:25.751Z,0.20
2023-04-11T18:57:57.112Z,0.60
2023-04-11T19:00:28.633Z,1.13
2023-04-11T19:02:58.412Z,1.43
2023-04-11T19:05:27.088Z,0.50
2023-04-11T19:07:55.944Z,2.07
2023-04-11T19:10:24.183Z,1.97
2023-04-11T19:12:52.351Z,2.50
2023-04-11T19:15:20.702Z,0.77
2023-04-11T19:17:48.967Z,2.67
2023-04-11T19:20:19.101Z,4.20
2023-04-11T19:22:47.585Z,2.53
2023-04-11T19:25:15.857Z,1.53
2023-04-11T19:27:44.385Z,1.90
2023-04-11T19:30:14.388Z,3.57
2023-04-11T19:32:45.898Z,1.67
2023-04-11T19:35:15.561Z,0.73
2023-04-11T19:37:45.074Z,1.70
2023-04-11T19:40:14.428Z,1.53
2023-04-11T19:42:43.165Z,1.67
2023-04-11T19:45:12.975Z,1.37
2023-04-11T19:47:42.014Z,2.30
2023-04-11T19:50:13.841Z,1.10
2023-04-11T19:52:44.314Z,0.70
2023-04-11T19:55:13.415Z,0.77
2023-04-11T19:57:43.575Z,0.37
2023-04-11T20:00:13.931Z,1.67
2023-04-11T20:02:48.133Z,0.43
2023-04-11T20:05:18.366Z,1.00
2023-04-11T20:07:48.949Z,0.93
2023-04-11T20:10:18.110Z,0.60
2023-04-11T20:12:46.382Z,0.67
2023-04-11T20:15:14.862Z,0.27
2023-04-11T20:17:45.406Z,0.97
2023-04-11T20:20:15.259Z,0.50
2023-04-11T20:22:44.716Z,0.73
2023-04-11T20:25:14.475Z,0.60
2023-04-11T20:27:44.242Z,1.00
2023-04-11T20:30:14.151Z,0.30
2023-04-11T20:32:43.276Z,0.70
2023-04-11T20:35:12.998Z,0.40
2023-04-11T20:37:43.423Z,0.40
2023-04-11T20:40:14.382Z,0.50
2023-04-11T20:42:42.966Z,0.50
2023-04-11T20:45:13.599Z,0.33
2023-04-11T20:47:45.961Z,0.40
2023-04-11T20:50:16.798Z,0.50
2023-04-11T20:52:47.283Z,0.30
2023-04-11T20:55:16.859Z,0.30
2023-04-11T20:57:45.699Z,0.43
2023-04-11T21:00:16.876Z,0.43
2023-04-11T21:02:49.943Z,0.20
2023-04-11T21:05:22.469Z,0.30
2023-04-11T21:07:54.093Z,0.50
2023-04-11T21:10:24.074Z,0.37
2023-04-11T21:12:53.947Z,0.47
2023-04-11T21:15:23.034Z,0.43
2023-04-11T21:17:52.296Z,0.40
2023-04-11T21:20:22.350Z,0.40
2023-04-11T21:22:53.818Z,0.30
2023-04-11T21:25:24.903Z,0.50
2023-04-11T21:27:53.276Z,0.30
2023-04-11T21:30:21.667Z,0.50
2023-04-11T21:32:49.931Z,0.53
2023-04-11T21:35:18.315Z,0.30
2023-04-11T21:37:48.899Z,0.30
2023-04-11T21:40:17.722Z,0.30
2023-04-11T21:42:47.245Z,0.33
2023-04-11T21:45:15.575Z,0.73
2023-04-11T21:47:43.846Z,0.40
2023-04-11T21:50:13.112Z,0.30
2023-04-11T21:52:41.815Z,0.40
2023-04-11T21:55:11.493Z,0.30
2023-04-11T21:57:39.756Z,0.30
2023-04-11T22:00:11.830Z,0.30
2023-04-11T22:02:40.819Z,0.30
2023-04-11T22:05:09.958Z,0.30
2023-04-11T22:07:47.313Z,0.40
2023-04-11T22:10:23.272Z,1.10
2023-04-11T22:12:53.817Z,0.77
2023-04-11T22:15:23.941Z,0.50
2023-04-11T22:17:54.478Z,0.40
2023-04-11T22:20:22.969Z,0.63
2023-04-11T22:22:51.361Z,0.30
2023-04-11T22:25:22.268Z,0.37
2023-04-11T22:27:54.143Z,0.50
2023-04-11T22:30:24.838Z,0.40
2023-04-11T22:32:54.273Z,0.30
2023-04-11T22:35:23.339Z,0.40
2023-04-11T22:37:53.642Z,0.40
2023-04-11T22:40:23.088Z,0.30
2023-04-11T22:42:52.221Z,0.60
2023-04-11T22:45:23.727Z,0.30
2023-04-11T22:47:55.646Z,0.57
2023-04-11T22:50:24.769Z,0.20
2023-04-11T22:52:54.627Z,0.30
2023-04-11T22:55:24.678Z,0.30
2023-04-11T22:57:53.066Z,0.30
2023-04-11T23:00:22.219Z,0.60
2023-04-11T23:02:52.291Z,0.30
2023-04-11T23:05:20.782Z,0.40
2023-04-11T23:07:48.999Z,0.40
2023-04-11T23:10:17.480Z,0.50
2023-04-11T23:12:45.891Z,0.50
2023-04-11T23:15:14.689Z,0.30
2023-04-11T23:17:43.241Z,0.30
2023-04-11T23:20:14.234Z,0.50
2023-04-11T23:22:43.960Z,0.40
2023-04-11T23:25:14.926Z,0.30
2023-04-11T23:27:46.176Z,0.50
2023-04-11T23:30:17.419Z,0.30
2023-04-11T23:32:46.036Z,0.27
2023-04-11T23:35:17.269Z,0.40
2023-04-11T23:37:45.950Z,0.30
2023-04-11T23:40:14.467Z,0.33
2023-04-11T23:42:43.074Z,0.40
2023-04-11T23:45:12.549Z,0.30
2023-04-11T23:47:41.159Z,0.60
2023-04-11T23:50:10.996Z,0.73
2023-04-11T23:52:40.801Z,0.30
2023-04-11T23:55:10.478Z,0.43
2023-04-11T23:57:38.815Z,0.40
